createdAt,value
2019-01-18T00:02:18.501Z,-0.10
2019-01-18T00:04:56.486Z,-0.02
2019-01-18T00:07:26.837Z,0.04
2019-01-18T00:09:57.485Z,-0.01
2019-01-18T00:12:31.039Z,-0.03
2019-01-18T00:17:41.770Z,-0.14
2019-01-18T00:20:12.192Z,-0.28
2019-01-18T00:22:46.198Z,-0.27
2019-01-18T00:25:17.253Z,-0.20
2019-01-18T00:27:47.563Z,-0.25
2019-01-18T00:30:24.407Z,-0.41
2019-01-18T00:32:51.645Z,-0.50
2019-01-18T00:35:22.218Z,-0.63
2019-01-18T00:37:53.905Z,-0.63
2019-01-18T00:40:24.919Z,-0.69
2019-01-18T00:42:55.236Z,-0.71
2019-01-18T00:45:32.216Z,-0.81
2019-01-18T00:47:57.559Z,-0.81
2019-01-18T00:50:30.482Z,-0.77
2019-01-18T00:53:00.763Z,-0.75
2019-01-18T00:55:31.396Z,-0.76
2019-01-18T00:58:02.085Z,-0.81
2019-01-18T01:00:33.034Z,-0.83
2019-01-18T01:03:04.951Z,-0.82
2019-01-18T01:05:38.667Z,-0.82
2019-01-18T01:08:08.946Z,-0.86
2019-01-18T01:10:39.674Z,-0.88
2019-01-18T01:13:10.075Z,-0.85
2019-01-18T01:15:41.445Z,-0.82
2019-01-18T01:18:14.945Z,-0.76
2019-01-18T01:20:46.692Z,-0.80
2019-01-18T01:23:17.146Z,-0.81
2019-01-18T01:25:51.706Z,-0.82
2019-01-18T01:28:23.268Z,-0.93
2019-01-18T01:30:54.981Z,-0.81
2019-01-18T01:33:25.334Z,-0.88
2019-01-18T01:35:57.296Z,-0.86
2019-01-18T01:38:27.750Z,-0.83
2019-01-18T01:40:59.363Z,-0.84
2019-01-18T01:43:29.722Z,-1.02
2019-01-18T01:46:00.034Z,-0.99
2019-01-18T01:48:30.336Z,-1.01
2019-01-18T01:51:00.665Z,-1.04
2019-01-18T01:53:32.897Z,-0.93
2019-01-18T01:56:03.265Z,-0.96
2019-01-18T01:58:33.867Z,-1.01
2019-01-18T02:01:04.519Z,-1.08
2019-01-18T02:03:37.034Z,-1.16
2019-01-18T02:06:07.394Z,-1.14
2019-01-18T02:08:38.041Z,-1.17
2019-01-18T02:11:09.956Z,-1.21
2019-01-18T02:13:41.931Z,-1.31
2019-01-18T02:16:12.398Z,-1.24
2019-01-18T02:18:50.933Z,-1.19
2019-01-18T02:21:21.280Z,-1.22
2019-01-18T02:23:51.845Z,-1.22
2019-01-18T02:26:24.484Z,-1.21
2019-01-18T02:28:56.312Z,-1.23
2019-01-18T02:31:26.667Z,-1.26
2019-01-18T02:33:56.987Z,-1.23
2019-01-18T02:36:27.387Z,-1.27
2019-01-18T02:38:59.177Z,-1.39
2019-01-18T02:41:29.536Z,-1.48
2019-01-18T02:44:01.009Z,-1.45
2019-01-18T02:46:31.362Z,-1.47
2019-01-18T02:49:03.022Z,-1.40
2019-01-18T02:51:33.347Z,-1.32
2019-01-18T02:54:04.421Z,-1.32
2019-01-18T02:56:34.831Z,-1.41
2019-01-18T02:59:07.805Z,-1.46
2019-01-18T03:01:39.351Z,-1.47
2019-01-18T03:04:14.821Z,-1.39
2019-01-18T03:06:45.404Z,-1.38
2019-01-18T03:09:15.812Z,-1.48
2019-01-18T03:11:46.210Z,-1.58
2019-01-18T03:14:16.636Z,-1.46
2019-01-18T03:16:47.319Z,-1.48
2019-01-18T03:19:17.601Z,-1.48
2019-01-18T03:21:47.917Z,-1.50
2019-01-18T03:24:20.886Z,-1.52
2019-01-18T03:26:51.547Z,-1.68
2019-01-18T03:29:21.867Z,-1.82
2019-01-18T03:31:55.347Z,-2.00
2019-01-18T03:34:26.803Z,-2.04
2019-01-18T03:36:57.158Z,-2.08
2019-01-18T03:39:27.542Z,-2.08
2019-01-18T03:41:58.365Z,-2.00
2019-01-18T03:44:28.812Z,-1.96
2019-01-18T03:47:05.984Z,-1.88
2019-01-18T03:49:36.567Z,-1.81
2019-01-18T03:52:07.177Z,-1.91
2019-01-18T03:54:37.749Z,-2.01
2019-01-18T03:57:10.272Z,-2.11
2019-01-18T03:59:40.548Z,-2.17
2019-01-18T04:02:16.419Z,-2.22
2019-01-18T04:04:46.807Z,-2.28
2019-01-18T04:07:19.325Z,-2.35
2019-01-18T04:09:52.080Z,-2.38
2019-01-18T04:12:22.372Z,-2.39
2019-01-18T04:14:53.244Z,-2.37
2019-01-18T04:17:27.449Z,-2.37
2019-01-18T04:19:57.850Z,-2.47
2019-01-18T04:22:30.092Z,-2.54
2019-01-18T04:25:14.502Z,-2.54
2019-01-18T04:27:47.654Z,-2.64
2019-01-18T04:30:21.258Z,-2.72
2019-01-18T04:32:51.729Z,-2.78
2019-01-18T04:35:25.731Z,-2.78
2019-01-18T04:37:56.333Z,-2.44
2019-01-18T04:40:27.625Z,-1.87
2019-01-18T04:43:00.693Z,-1.72
2019-01-18T04:45:31.026Z,-1.71
2019-01-18T04:48:01.643Z,-1.81
2019-01-18T04:50:38.673Z,-1.94
2019-01-18T04:53:08.957Z,-2.06
2019-01-18T04:55:39.279Z,-2.27
2019-01-18T04:58:26.580Z,-2.47
2019-01-18T05:00:44.316Z,-2.60
2019-01-18T05:03:15.026Z,-2.75
2019-01-18T05:05:51.878Z,-2.83
2019-01-18T05:08:21.051Z,-2.94
2019-01-18T05:10:51.352Z,-2.93
2019-01-18T05:13:29.244Z,-2.88
2019-01-18T05:16:00.621Z,-2.48
2019-01-18T05:18:32.882Z,-2.27
2019-01-18T05:21:03.298Z,-2.28
2019-01-18T05:23:36.137Z,-2.31
2019-01-18T05:26:06.821Z,-2.43
2019-01-18T05:28:37.578Z,-2.54
2019-01-18T05:31:07.845Z,-2.61
2019-01-18T05:33:38.419Z,-2.71
2019-01-18T05:36:08.792Z,-2.78
2019-01-18T05:38:39.250Z,-2.69
2019-01-18T05:41:16.240Z,-2.60
2019-01-18T05:43:52.071Z,-2.46
2019-01-18T05:46:22.383Z,-2.44
2019-01-18T05:48:54.888Z,-2.60
2019-01-18T05:51:25.240Z,-2.62
2019-01-18T05:53:55.783Z,-2.62
2019-01-18T05:56:26.364Z,-2.69
2019-01-18T05:58:58.313Z,-2.85
2019-01-18T06:01:28.856Z,-3.05
2019-01-18T06:04:03.265Z,-3.16
2019-01-18T06:06:33.989Z,-3.28
2019-01-18T06:09:06.788Z,-3.30
2019-01-18T06:11:37.130Z,-3.30
2019-01-18T06:14:08.484Z,-3.25
2019-01-18T06:16:43.523Z,-3.29
2019-01-18T06:19:15.688Z,-3.28
2019-01-18T06:21:46.405Z,-3.27
2019-01-18T06:24:20.878Z,-3.29
2019-01-18T06:26:51.557Z,-3.28
2019-01-18T06:29:22.488Z,-3.31
2019-01-18T06:31:55.432Z,-3.31
2019-01-18T06:34:27.106Z,-3.32
2019-01-18T06:36:57.705Z,-3.11
2019-01-18T06:39:36.608Z,-2.86
2019-01-18T06:42:06.946Z,-2.80
2019-01-18T06:44:37.258Z,-2.73
2019-01-18T06:47:13.360Z,-2.63
2019-01-18T06:49:44.025Z,-2.66
2019-01-18T06:52:14.335Z,-2.81
2019-01-18T06:54:51.278Z,-2.86
2019-01-18T06:57:21.955Z,-2.89
2019-01-18T06:59:52.559Z,-2.96
2019-01-18T07:02:22.991Z,-2.89
2019-01-18T07:04:54.857Z,-2.88
2019-01-18T07:07:25.317Z,-2.89
2019-01-18T07:09:59.426Z,-2.94
2019-01-18T07:12:30.049Z,-2.98
2019-01-18T07:15:01.145Z,-2.95
2019-01-18T07:17:37.276Z,-2.83
2019-01-18T07:20:11.571Z,-2.85
2019-01-18T07:22:42.102Z,-2.96
2019-01-18T07:25:16.650Z,-3.09
2019-01-18T07:27:46.956Z,-3.19
2019-01-18T07:30:22.970Z,-3.14
2019-01-18T07:32:58.027Z,-2.99
2019-01-18T07:35:28.478Z,-2.95
2019-01-18T07:37:59.045Z,-3.07
2019-01-18T07:40:37.559Z,-3.12
2019-01-18T07:43:08.039Z,-3.12
2019-01-18T07:45:38.614Z,-2.85
2019-01-18T07:48:08.974Z,-2.78
2019-01-18T07:50:39.582Z,-2.81
2019-01-18T07:53:11.626Z,-2.89
2019-01-18T07:55:42.321Z,-2.98
2019-01-18T07:58:12.708Z,-3.01
2019-01-18T08:00:43.281Z,-2.88
2019-01-18T08:03:13.601Z,-2.69
2019-01-18T08:05:44.105Z,-2.57
2019-01-18T08:08:14.403Z,-2.49
2019-01-18T08:10:45.370Z,-2.36
2019-01-18T08:13:18.480Z,-2.27
2019-01-18T08:15:48.804Z,-2.18
2019-01-18T08:18:19.246Z,-2.14
2019-01-18T08:20:55.834Z,-2.18
2019-01-18T08:23:26.634Z,-2.06
2019-01-18T08:25:57.774Z,-1.86
2019-01-18T08:28:31.660Z,-1.86
2019-01-18T08:31:03.211Z,-1.82
2019-01-18T08:33:33.512Z,-1.74
2019-01-18T08:36:09.107Z,-1.68
2019-01-18T08:38:39.443Z,-1.64
2019-01-18T08:41:12.475Z,-1.63
2019-01-18T08:43:42.771Z,-1.50
2019-01-18T08:46:15.670Z,-1.39
2019-01-18T08:48:46.099Z,-1.37
2019-01-18T08:51:18.682Z,-1.33
2019-01-18T08:53:49.304Z,-1.28
2019-01-18T08:56:20.644Z,-1.22
2019-01-18T08:58:51.365Z,-0.90
2019-01-18T09:01:22.068Z,-0.90
2019-01-18T09:03:54.198Z,0.22
2019-01-18T09:06:24.792Z,2.38
2019-01-18T09:08:55.189Z,4.08
2019-01-18T09:11:27.259Z,4.56
2019-01-18T09:13:59.871Z,4.05
2019-01-18T09:16:30.055Z,3.20
2019-01-18T09:19:01.689Z,3.27
2019-01-18T09:21:32.028Z,2.92
2019-01-18T09:24:03.278Z,3.16
2019-01-18T09:26:39.665Z,3.22
2019-01-18T09:29:10.336Z,2.64
2019-01-18T09:31:42.648Z,2.59
2019-01-18T09:34:19.900Z,2.51
2019-01-18T09:36:50.278Z,2.51
2019-01-18T09:39:21.100Z,2.28
2019-01-18T09:41:51.471Z,2.68
2019-01-18T09:44:22.008Z,5.22
2019-01-18T09:46:52.308Z,5.22
2019-01-18T09:49:27.541Z,5.67
2019-01-18T09:51:59.417Z,5.06
2019-01-18T09:54:29.904Z,5.06
2019-01-18T09:57:13.864Z,4.66
2019-01-18T09:59:36.923Z,3.59
2019-01-18T10:02:07.356Z,2.93
2019-01-18T10:04:38.777Z,3.04
2019-01-18T10:07:09.083Z,3.97
2019-01-18T10:09:40.521Z,4.49
2019-01-18T10:12:10.842Z,3.91
2019-01-18T10:14:41.160Z,3.06
2019-01-18T10:17:11.970Z,2.48
2019-01-18T10:19:42.503Z,2.07
2019-01-18T10:22:12.969Z,1.54
2019-01-18T10:24:45.768Z,1.49
2019-01-18T10:27:16.473Z,1.54
2019-01-18T10:29:54.467Z,1.67
2019-01-18T10:32:24.865Z,1.67
2019-01-18T10:34:55.506Z,1.88
2019-01-18T10:37:30.846Z,2.14
2019-01-18T10:39:59.965Z,2.24
2019-01-18T10:42:30.707Z,2.51
2019-01-18T10:45:02.514Z,2.49
2019-01-18T10:47:34.197Z,2.64
2019-01-18T10:50:06.191Z,2.49
2019-01-18T10:52:39.880Z,2.24
2019-01-18T10:55:11.693Z,2.12
2019-01-18T10:57:42.037Z,2.08
2019-01-18T11:00:33.021Z,1.87
2019-01-18T11:03:18.002Z,1.74
2019-01-18T11:05:39.094Z,1.81
2019-01-18T11:08:09.419Z,1.66
2019-01-18T11:10:47.865Z,1.57
2019-01-18T11:13:20.584Z,1.45
2019-01-18T11:15:51.068Z,1.37
2019-01-18T11:18:40.791Z,1.54
2019-01-18T11:21:27.282Z,1.87
2019-01-18T11:23:57.643Z,2.16
2019-01-18T11:26:28.139Z,2.44
2019-01-18T11:29:20.651Z,2.72
2019-01-18T11:31:39.468Z,2.72
2019-01-18T11:34:09.916Z,2.78
2019-01-18T11:36:50.776Z,2.69
2019-01-18T11:39:24.293Z,2.69
2019-01-18T11:41:56.565Z,2.73
2019-01-18T11:44:27.176Z,2.71
2019-01-18T11:47:16.631Z,2.57
2019-01-18T11:50:05.096Z,2.56
2019-01-18T11:52:35.592Z,2.50
2019-01-18T11:55:06.642Z,2.49
2019-01-18T11:57:36.978Z,2.31
2019-01-18T12:00:15.266Z,2.18
2019-01-18T12:02:45.568Z,2.12
2019-01-18T12:05:17.753Z,2.08
2019-01-18T12:07:48.638Z,2.08
2019-01-18T12:10:21.451Z,2.11
2019-01-18T12:12:57.234Z,2.16
2019-01-18T12:15:28.573Z,2.13
2019-01-18T12:17:59.188Z,2.28
2019-01-18T12:20:41.337Z,2.62
2019-01-18T12:23:11.925Z,2.87
2019-01-18T12:25:42.647Z,2.78
2019-01-18T12:28:23.717Z,2.74
2019-01-18T12:30:54.101Z,2.76
2019-01-18T12:33:24.614Z,2.80
2019-01-18T12:35:55.292Z,2.85
2019-01-18T12:38:25.806Z,2.76
2019-01-18T12:41:14.274Z,2.64
2019-01-18T12:43:35.650Z,2.65
2019-01-18T12:46:06.052Z,2.71
2019-01-18T12:48:36.528Z,2.80
2019-01-18T12:51:06.928Z,2.75
2019-01-18T12:53:56.331Z,2.62
2019-01-18T12:56:44.412Z,2.43
2019-01-18T12:59:15.019Z,2.29
2019-01-18T13:01:45.513Z,2.29
2019-01-18T13:04:16.216Z,2.30
2019-01-18T13:06:48.238Z,2.34
2019-01-18T13:09:18.965Z,2.33
2019-01-18T13:11:49.364Z,2.26
2019-01-18T13:14:20.185Z,2.25
2019-01-18T13:16:50.597Z,2.27
2019-01-18T13:19:26.048Z,2.24
2019-01-18T13:21:56.409Z,2.11
2019-01-18T13:24:27.217Z,2.06
2019-01-18T13:26:57.592Z,2.04
2019-01-18T13:29:28.231Z,2.03
2019-01-18T13:32:00.593Z,2.08
2019-01-18T13:34:32.186Z,2.08
2019-01-18T13:37:02.798Z,2.01
2019-01-18T13:39:38.267Z,2.01
2019-01-18T13:42:08.955Z,2.02
2019-01-18T13:44:43.745Z,2.00
2019-01-18T13:47:18.201Z,1.98
2019-01-18T13:49:47.134Z,1.97
2019-01-18T13:52:17.862Z,1.95
2019-01-18T13:54:48.648Z,1.83
2019-01-18T13:57:19.112Z,1.83
2019-01-18T13:59:49.763Z,1.78
2019-01-18T14:02:20.088Z,1.66
2019-01-18T14:04:55.407Z,1.58
2019-01-18T14:07:26.099Z,1.49
2019-01-18T14:10:02.296Z,1.45
2019-01-18T14:12:33.129Z,1.39
2019-01-18T14:15:05.595Z,1.35
2019-01-18T14:17:37.206Z,1.38
2019-01-18T14:20:13.031Z,1.32
2019-01-18T14:22:43.703Z,1.29
2019-01-18T14:25:22.402Z,1.15
2019-01-18T14:27:51.335Z,1.00
2019-01-18T14:30:24.870Z,0.96
2019-01-18T14:32:59.096Z,0.86
2019-01-18T14:35:29.533Z,0.79
2019-01-18T14:38:00.043Z,0.73
2019-01-18T14:40:33.897Z,0.75
2019-01-18T14:43:06.011Z,0.73
2019-01-18T14:45:41.013Z,0.67
2019-01-18T14:48:11.604Z,0.61
2019-01-18T14:50:43.454Z,0.58
2019-01-18T14:53:13.900Z,0.49
2019-01-18T14:55:49.823Z,0.33
2019-01-18T14:58:24.645Z,0.27
2019-01-18T15:00:54.686Z,0.15
2019-01-18T15:03:44.220Z,0.06
2019-01-18T15:06:17.154Z,-0.04
2019-01-18T15:08:50.950Z,-0.09
2019-01-18T15:11:21.312Z,-0.11
2019-01-18T15:13:51.703Z,-0.21
2019-01-18T15:16:22.167Z,-0.29
2019-01-18T15:18:52.469Z,-0.37
2019-01-18T15:21:30.686Z,-0.26
2019-01-18T15:23:57.060Z,-0.26
2019-01-18T15:26:27.384Z,-0.22
2019-01-18T15:28:57.759Z,-0.33
2019-01-18T15:31:28.126Z,-0.41
2019-01-18T15:34:03.175Z,-0.48
2019-01-18T15:36:33.543Z,-0.50
2019-01-18T15:39:11.190Z,-0.53
2019-01-18T15:41:45.240Z,-0.54
2019-01-18T15:44:15.642Z,-0.62
2019-01-18T15:46:46.265Z,-0.76
2019-01-18T15:49:21.019Z,-0.83
2019-01-18T15:51:51.364Z,-0.84
2019-01-18T15:54:21.994Z,-0.96
2019-01-18T15:57:04.295Z,-1.04
2019-01-18T15:59:34.760Z,-1.03
2019-01-18T16:02:07.333Z,-1.17
2019-01-18T16:04:48.607Z,-1.26
2019-01-18T16:07:19.165Z,-1.32
2019-01-18T16:09:52.588Z,-1.35
2019-01-18T16:12:23.134Z,-1.45
2019-01-18T16:14:53.521Z,-1.45
2019-01-18T16:17:36.015Z,-1.39
2019-01-18T16:20:11.973Z,-1.31
2019-01-18T16:22:42.655Z,-1.21
2019-01-18T16:25:21.570Z,-1.21
2019-01-18T16:27:51.939Z,-1.19
2019-01-18T16:30:22.643Z,-0.98
2019-01-18T16:32:53.778Z,-0.90
2019-01-18T16:35:24.284Z,-0.90
2019-01-18T16:37:54.851Z,-0.88
2019-01-18T16:40:28.003Z,-0.86
2019-01-18T16:43:17.124Z,-0.89
2019-01-18T16:45:49.156Z,-0.93
2019-01-18T16:48:19.454Z,-0.99
2019-01-18T16:50:50.328Z,-0.99
2019-01-18T16:53:21.016Z,-1.02
2019-01-18T16:55:54.006Z,-1.07
2019-01-18T16:58:24.402Z,-1.15
2019-01-18T17:00:56.301Z,-1.28
2019-01-18T17:03:30.561Z,-1.36
2019-01-18T17:05:58.913Z,-1.37
2019-01-18T17:08:29.366Z,-1.39
2019-01-18T17:11:02.950Z,-1.36
2019-01-18T17:13:38.189Z,-1.42
2019-01-18T17:16:08.768Z,-1.42
2019-01-18T17:18:40.986Z,-1.51
2019-01-18T17:21:11.318Z,-1.65
2019-01-18T17:23:41.950Z,-1.58
2019-01-18T17:26:19.472Z,-1.66
2019-01-18T17:28:50.158Z,-1.75
2019-01-18T17:31:20.806Z,-1.78
2019-01-18T17:33:51.460Z,-1.84
2019-01-18T17:37:07.226Z,-1.92
2019-01-18T17:40:11.272Z,-2.02
2019-01-18T17:43:17.962Z,-1.99
2019-01-18T17:46:04.905Z,-1.81
2019-01-18T17:48:58.601Z,-1.81
2019-01-18T17:51:57.752Z,-1.78
2019-01-18T17:54:46.020Z,-1.84
2019-01-18T17:57:40.530Z,-1.77
2019-01-18T18:00:49.150Z,-1.87
2019-01-18T18:04:15.909Z,-1.78
2019-01-18T18:07:10.706Z,-1.73
2019-01-18T18:10:31.424Z,-1.72
2019-01-18T18:13:59.232Z,-1.84
2019-01-18T18:16:56.753Z,-1.94
2019-01-18T18:20:13.351Z,-1.95
2019-01-18T18:23:07.323Z,-1.89
2019-01-18T18:26:06.026Z,-1.79
2019-01-18T18:29:03.567Z,-1.76
2019-01-18T18:31:50.997Z,-1.78
2019-01-18T18:35:13.682Z,-1.80
2019-01-18T18:38:10.628Z,-1.82
2019-01-18T18:41:27.899Z,-1.93
2019-01-18T18:44:22.039Z,-1.93
2019-01-18T18:47:02.305Z,-1.94
2019-01-18T18:50:18.809Z,-2.00
2019-01-18T18:53:17.557Z,-2.03
2019-01-18T18:56:36.692Z,-2.08
2019-01-18T18:59:55.452Z,-2.14
2019-01-18T19:03:08.768Z,-2.14
2019-01-18T19:06:32.252Z,-2.18
2019-01-18T19:09:45.783Z,-2.16
2019-01-18T19:12:41.772Z,-2.10
2019-01-18T19:15:58.460Z,-2.06
2019-01-18T19:19:11.569Z,-2.07
2019-01-18T19:22:08.446Z,-2.10
2019-01-18T19:25:42.089Z,-2.10
2019-01-18T19:29:08.416Z,-2.13
2019-01-18T19:32:14.321Z,-2.05
2019-01-18T19:35:19.541Z,-2.10
2019-01-18T19:38:22.611Z,-2.15
2019-01-18T19:41:19.790Z,-2.14
2019-01-18T19:44:39.349Z,-2.04
2019-01-18T19:47:30.077Z,-2.01
2019-01-18T19:50:43.879Z,-2.03
2019-01-18T19:54:02.346Z,-2.08
2019-01-18T19:56:49.997Z,-2.08
2019-01-18T19:59:57.651Z,-2.06
2019-01-18T20:02:41.124Z,-2.03
2019-01-18T20:05:35.741Z,-1.97
2019-01-18T20:08:59.494Z,-1.97
2019-01-18T20:12:04.254Z,-1.89
2019-01-18T20:14:47.571Z,-1.79
2019-01-18T20:18:03.377Z,-1.79
2019-01-18T20:21:37.681Z,-1.76
2019-01-18T20:24:36.094Z,-1.77
2019-01-18T20:27:38.103Z,-1.81
2019-01-18T20:31:08.246Z,-1.74
2019-01-18T20:34:30.679Z,-1.70
2019-01-18T20:37:24.936Z,-1.70
2019-01-18T20:40:49.302Z,-1.69
2019-01-18T20:43:58.274Z,-1.70
2019-01-18T20:47:16.841Z,-1.77
2019-01-18T20:50:12.841Z,-1.82
2019-01-18T20:53:12.267Z,-1.84
2019-01-18T20:56:29.735Z,-1.82
2019-01-18T20:59:14.416Z,-1.86
2019-01-18T21:02:43.966Z,-1.97
2019-01-18T21:05:53.561Z,-1.81
2019-01-18T21:08:40.941Z,-1.88
2019-01-18T21:11:26.494Z,-1.88
2019-01-18T21:14:12.212Z,-1.89
2019-01-18T21:17:09.100Z,-1.90
2019-01-18T21:20:09.685Z,-1.82
2019-01-18T21:23:33.714Z,-1.81
2019-01-18T21:26:36.201Z,-1.88
2019-01-18T21:29:52.416Z,-1.78
2019-01-18T21:32:44.100Z,-1.70
2019-01-18T21:36:06.855Z,-1.77
2019-01-18T21:39:14.481Z,-1.83
2019-01-18T21:42:29.460Z,-1.93
2019-01-18T21:45:36.640Z,-1.88
2019-01-18T21:49:12.939Z,-1.91
2019-01-18T21:52:03.163Z,-2.00
2019-01-18T21:54:57.413Z,-2.08
2019-01-18T21:58:02.281Z,-2.18
2019-01-18T22:01:03.657Z,-2.19
2019-01-18T22:03:53.107Z,-2.00
2019-01-18T22:06:59.167Z,-1.93
2019-01-18T22:09:41.910Z,-1.99
2019-01-18T22:12:39.463Z,-2.04
2019-01-18T22:16:11.946Z,-2.12
2019-01-18T22:19:28.616Z,-2.21
2019-01-18T22:22:30.830Z,-2.28
2019-01-18T22:25:43.375Z,-2.23
2019-01-18T22:28:43.765Z,-2.26
2019-01-18T22:31:47.041Z,-2.36
2019-01-18T22:34:47.869Z,-2.36
2019-01-18T22:38:02.527Z,-2.36
2019-01-18T22:40:56.162Z,-2.35
2019-01-18T22:43:41.299Z,-2.25
2019-01-18T22:46:52.992Z,-2.16
2019-01-18T22:49:47.559Z,-2.13
2019-01-18T22:53:17.392Z,-2.35
2019-01-18T22:56:10.840Z,-2.35
2019-01-18T22:59:20.286Z,-2.33
2019-01-18T23:02:26.421Z,-2.36
2019-01-18T23:05:42.786Z,-2.44
2019-01-18T23:08:48.630Z,-2.43
2019-01-18T23:11:35.578Z,-2.54
2019-01-18T23:14:20.161Z,-2.52
2019-01-18T23:17:27.573Z,-2.45
2019-01-18T23:20:33.410Z,-2.49
2019-01-18T23:23:44.283Z,-2.60
2019-01-18T23:27:07.227Z,-2.52
2019-01-18T23:30:15.148Z,-2.55
2019-01-18T23:33:34.253Z,-2.56
2019-01-18T23:36:52.265Z,-2.47
2019-01-18T23:40:08.493Z,-2.48
2019-01-18T23:43:04.107Z,-2.49
2019-01-18T23:46:20.118Z,-2.49
2019-01-18T23:49:20.700Z,-2.48
2019-01-18T23:52:30.131Z,-2.49
2019-01-18T23:55:36.951Z,-2.56
2019-01-18T23:58:33.611Z,-2.61
